createdAt,value
2022-09-02T00:00:26.460Z,1.70
2022-09-02T00:02:57.411Z,1.97
2022-09-02T00:05:25.799Z,1.80
2022-09-02T00:07:54.930Z,1.80
2022-09-02T00:10:25.263Z,2.00
2022-09-02T00:13:06.079Z,2.13
2022-09-02T00:15:34.223Z,1.90
2022-09-02T00:18:08.469Z,1.90
2022-09-02T00:20:48.358Z,1.90
2022-09-02T00:23:18.683Z,2.10
2022-09-02T00:25:48.671Z,1.63
2022-09-02T00:28:22.388Z,2.20
2022-09-02T00:30:52.031Z,1.80
2022-09-02T00:33:25.500Z,1.67
2022-09-02T00:35:55.001Z,2.10
2022-09-02T00:38:24.501Z,2.07
2022-09-02T00:40:52.132Z,1.83
2022-09-02T00:43:38.092Z,1.77
2022-09-02T00:46:08.636Z,1.80
2022-09-02T00:48:43.675Z,1.80
2022-09-02T00:51:12.308Z,1.60
2022-09-02T00:53:41.839Z,1.80
2022-09-02T00:56:18.153Z,1.80
2022-09-02T00:58:48.781Z,2.00
2022-09-02T01:01:21.583Z,1.90
2022-09-02T01:03:51.836Z,1.90
2022-09-02T01:06:28.661Z,1.90
2022-09-02T01:09:01.496Z,2.00
2022-09-02T01:11:48.426Z,1.77
2022-09-02T01:14:18.828Z,1.70
2022-09-02T01:16:56.559Z,1.90
2022-09-02T01:19:39.827Z,2.07
2022-09-02T01:22:24.685Z,1.90
2022-09-02T01:24:54.636Z,2.10
2022-09-02T01:27:23.920Z,2.00
2022-09-02T01:30:00.081Z,1.90
2022-09-02T01:32:37.093Z,1.97
2022-09-02T01:35:11.050Z,2.10
2022-09-02T01:37:42.802Z,2.10
2022-09-02T01:40:28.520Z,2.00
2022-09-02T01:43:17.309Z,1.80
2022-09-02T01:45:53.648Z,2.10
2022-09-02T01:48:25.110Z,1.93
2022-09-02T01:51:03.623Z,1.70
2022-09-02T01:53:35.106Z,1.80
2022-09-02T01:56:05.010Z,2.00
2022-09-02T01:58:35.343Z,1.90
2022-09-02T02:01:06.249Z,2.00
2022-09-02T02:03:38.208Z,1.80
2022-09-02T02:06:14.855Z,2.10
2022-09-02T02:08:48.222Z,2.10
2022-09-02T02:11:25.819Z,2.10
2022-09-02T02:14:01.910Z,2.10
2022-09-02T02:16:33.086Z,2.10
2022-09-02T02:19:00.537Z,2.10
2022-09-02T02:21:32.874Z,2.40
2022-09-02T02:24:06.539Z,2.80
2022-09-02T02:26:36.911Z,2.20
2022-09-02T02:29:08.843Z,2.00
2022-09-02T02:31:38.408Z,2.00
2022-09-02T02:34:15.251Z,1.97
2022-09-02T02:36:45.266Z,2.10
2022-09-02T02:39:17.858Z,1.80
2022-09-02T02:41:47.643Z,1.93
2022-09-02T02:44:18.182Z,2.10
2022-09-02T02:46:48.242Z,1.90
2022-09-02T02:49:19.193Z,1.97
2022-09-02T02:51:49.071Z,2.00
2022-09-02T02:54:19.015Z,2.27
2022-09-02T02:56:51.627Z,1.90
2022-09-02T02:59:21.016Z,1.80
2022-09-02T03:01:50.878Z,2.30
2022-09-02T03:04:19.341Z,2.10
2022-09-02T03:06:50.496Z,2.10
2022-09-02T03:09:20.848Z,2.00
2022-09-02T03:11:50.352Z,1.80
2022-09-02T03:14:19.245Z,2.20
2022-09-02T03:16:48.547Z,2.00
2022-09-02T03:19:19.265Z,2.03
2022-09-02T03:21:48.014Z,1.90
2022-09-02T03:24:19.255Z,1.90
2022-09-02T03:26:47.328Z,2.00
2022-09-02T03:29:14.715Z,2.10
2022-09-02T03:31:48.725Z,2.00
2022-09-02T03:34:19.006Z,2.00
2022-09-02T03:36:48.606Z,2.10
2022-09-02T03:39:16.031Z,2.00
2022-09-02T03:41:57.714Z,2.03
2022-09-02T03:44:26.101Z,2.07
2022-09-02T03:46:58.666Z,2.00
2022-09-02T03:49:28.945Z,2.20
2022-09-02T03:51:58.463Z,2.10
2022-09-02T03:54:26.236Z,2.10
2022-09-02T03:56:55.000Z,1.97
2022-09-02T03:59:25.191Z,2.20
2022-09-02T04:01:55.471Z,2.20
2022-09-02T04:04:27.129Z,2.00
2022-09-02T04:06:57.083Z,2.10
2022-09-02T04:09:26.621Z,2.00
2022-09-02T04:11:59.105Z,2.23
2022-09-02T04:14:29.491Z,2.10
2022-09-02T04:16:57.997Z,2.30
2022-09-02T04:19:29.114Z,2.30
2022-09-02T04:21:59.123Z,2.30
2022-09-02T04:24:32.193Z,2.27
2022-09-02T04:27:04.525Z,2.00
2022-09-02T04:29:37.133Z,2.30
2022-09-02T04:32:07.419Z,2.17
2022-09-02T04:34:38.684Z,2.33
2022-09-02T04:37:08.823Z,2.10
2022-09-02T04:39:38.022Z,2.20
2022-09-02T04:42:06.467Z,2.10
2022-09-02T04:44:39.340Z,2.13
2022-09-02T04:47:10.115Z,2.10
2022-09-02T04:49:38.038Z,2.30
2022-09-02T04:52:08.692Z,2.30
2022-09-02T04:54:41.270Z,2.10
2022-09-02T04:57:09.932Z,2.43
2022-09-02T04:59:38.981Z,2.30
2022-09-02T05:02:14.218Z,2.40
2022-09-02T05:04:44.406Z,2.50
2022-09-02T05:07:21.063Z,2.30
2022-09-02T05:09:50.560Z,2.33
2022-09-02T05:12:19.897Z,2.27
2022-09-02T05:15:08.991Z,2.40
2022-09-02T05:17:38.742Z,2.30
2022-09-02T05:20:15.261Z,2.30
2022-09-02T05:22:48.367Z,2.33
2022-09-02T05:25:19.285Z,2.40
2022-09-02T05:27:46.868Z,2.30
2022-09-02T05:30:15.987Z,2.20
2022-09-02T05:32:46.789Z,2.37
2022-09-02T05:35:16.387Z,2.53
2022-09-02T05:37:48.864Z,2.50
2022-09-02T05:40:16.596Z,2.57
2022-09-02T05:42:55.121Z,2.53
2022-09-02T05:45:24.638Z,2.83
2022-09-02T05:47:55.175Z,2.60
2022-09-02T05:50:27.058Z,2.60
2022-09-02T05:53:02.765Z,2.60
2022-09-02T05:55:33.005Z,2.50
2022-09-02T05:58:01.733Z,2.73
2022-09-02T06:00:39.131Z,2.50
2022-09-02T06:03:09.633Z,2.70
2022-09-02T06:08:25.395Z,2.87
2022-09-02T06:10:54.438Z,2.73
2022-09-02T06:13:26.576Z,2.43
2022-09-02T06:15:58.476Z,2.70
2022-09-02T06:18:32.321Z,2.50
2022-09-02T06:21:04.856Z,2.73
2022-09-02T06:23:46.502Z,2.50
2022-09-02T06:26:18.073Z,2.90
2022-09-02T06:28:50.348Z,2.47
2022-09-02T06:31:25.745Z,2.40
2022-09-02T06:34:06.079Z,2.20
2022-09-02T06:36:34.950Z,2.20
2022-09-02T06:39:07.922Z,2.20
2022-09-02T06:41:42.719Z,2.10
2022-09-02T06:44:16.418Z,2.30
2022-09-02T06:46:54.316Z,2.20
2022-09-02T06:49:25.807Z,2.00
2022-09-02T06:51:57.000Z,2.13
2022-09-02T06:54:31.613Z,1.97
2022-09-02T06:57:15.184Z,1.90
2022-09-02T06:59:49.682Z,2.13
2022-09-02T07:02:28.867Z,2.03
2022-09-02T07:05:20.369Z,2.10
2022-09-02T07:07:52.805Z,2.10
2022-09-02T07:10:23.106Z,2.00
2022-09-02T07:12:54.121Z,2.10
2022-09-02T07:18:09.509Z,1.67
2022-09-02T07:20:42.014Z,1.90
2022-09-02T07:23:14.147Z,2.10
2022-09-02T07:25:48.434Z,2.03
2022-09-02T07:28:17.568Z,2.00
2022-09-02T07:30:49.749Z,1.90
2022-09-02T07:33:23.371Z,1.90
2022-09-02T07:35:53.187Z,2.07
2022-09-02T07:38:25.182Z,1.90
2022-09-02T07:40:57.567Z,1.80
2022-09-02T07:43:33.604Z,1.80
2022-09-02T07:46:04.258Z,1.70
2022-09-02T07:48:34.761Z,1.77
2022-09-02T07:51:05.390Z,1.83
2022-09-02T07:53:36.473Z,1.80
2022-09-02T07:56:08.459Z,1.87
2022-09-02T07:58:41.749Z,1.60
2022-09-02T08:01:11.216Z,1.80
2022-09-02T08:03:47.335Z,1.70
2022-09-02T08:06:16.245Z,1.93
2022-09-02T08:08:52.464Z,1.70
2022-09-02T08:11:33.953Z,1.80
2022-09-02T08:14:05.989Z,1.87
2022-09-02T08:16:35.375Z,2.00
2022-09-02T08:19:08.343Z,2.03
2022-09-02T08:21:40.243Z,1.90
2022-09-02T08:24:13.000Z,2.00
2022-09-02T08:26:43.599Z,1.70
2022-09-02T08:29:25.234Z,1.60
2022-09-02T08:31:56.790Z,2.00
2022-09-02T08:34:29.217Z,1.60
2022-09-02T08:37:03.578Z,1.90
2022-09-02T08:39:34.372Z,2.00
2022-09-02T08:42:44.642Z,1.70
2022-09-02T08:45:44.709Z,1.80
2022-09-02T08:48:28.878Z,1.80
2022-09-02T08:51:07.177Z,1.63
2022-09-02T08:53:55.001Z,1.80
2022-09-02T08:56:24.959Z,2.10
2022-09-02T08:58:56.910Z,2.10
2022-09-02T09:01:35.539Z,1.90
2022-09-02T09:04:15.876Z,1.70
2022-09-02T09:07:22.956Z,1.90
2022-09-02T09:10:19.387Z,2.10
2022-09-02T09:13:36.300Z,1.60
2022-09-02T09:19:16.341Z,1.80
2022-09-02T09:21:48.632Z,1.90
2022-09-02T09:24:41.389Z,2.10
2022-09-02T09:27:18.740Z,1.70
2022-09-02T09:29:53.008Z,2.20
2022-09-02T09:32:55.845Z,1.70
2022-09-02T09:35:27.185Z,1.83
2022-09-02T09:37:56.868Z,1.83
2022-09-02T09:40:36.404Z,2.00
2022-09-02T09:43:15.809Z,2.00
2022-09-02T09:45:47.599Z,1.90
2022-09-02T09:48:35.364Z,1.63
2022-09-02T09:51:10.235Z,2.00
2022-09-02T09:53:41.222Z,2.00
2022-09-02T09:56:19.225Z,2.03
2022-09-02T09:58:49.443Z,1.90
2022-09-02T10:04:43.614Z,1.70
2022-09-02T10:07:23.618Z,2.10
2022-09-02T10:10:19.714Z,2.03
2022-09-02T10:12:54.129Z,2.13
2022-09-02T10:15:58.310Z,2.10
2022-09-02T10:18:53.535Z,1.90
2022-09-02T10:22:02.358Z,2.00
2022-09-02T10:25:18.927Z,1.80
2022-09-02T10:28:30.297Z,1.93
2022-09-02T10:31:32.577Z,1.83
2022-09-02T10:34:25.136Z,1.73
2022-09-02T10:37:23.538Z,1.80
2022-09-02T10:40:24.148Z,2.03
2022-09-02T10:43:06.643Z,2.00
2022-09-02T10:45:53.459Z,1.80
2022-09-02T10:48:51.009Z,1.90
2022-09-02T10:51:29.425Z,1.80
2022-09-02T10:54:32.126Z,1.77
2022-09-02T10:57:17.905Z,1.80
2022-09-02T10:59:54.478Z,1.67
2022-09-02T11:03:03.796Z,1.73
2022-09-02T11:06:09.379Z,1.70
2022-09-02T11:09:03.124Z,1.80
2022-09-02T11:11:47.125Z,1.70
2022-09-02T11:15:03.154Z,1.60
2022-09-02T11:17:41.099Z,1.80
2022-09-02T11:20:36.912Z,1.40
2022-09-02T11:23:26.575Z,1.60
2022-09-02T11:26:19.918Z,1.50
2022-09-02T11:29:02.846Z,1.50
2022-09-02T11:32:16.076Z,1.70
2022-09-02T11:34:50.846Z,1.80
2022-09-02T11:38:05.823Z,1.40
2022-09-02T11:40:44.700Z,1.87
2022-09-02T11:43:22.115Z,1.60
2022-09-02T11:46:40.314Z,1.57
2022-09-02T11:50:10.810Z,1.80
2022-09-02T11:52:52.720Z,1.60
2022-09-02T11:55:27.821Z,1.70
2022-09-02T11:58:05.924Z,1.90
2022-09-02T12:01:02.544Z,1.63
2022-09-02T12:03:46.874Z,1.57
2022-09-02T12:06:23.065Z,1.60
2022-09-02T12:08:56.033Z,1.30
2022-09-02T12:11:50.729Z,1.40
2022-09-02T12:14:50.078Z,1.50
2022-09-02T12:17:48.677Z,1.60
2022-09-02T12:20:42.649Z,1.60
2022-09-02T12:23:55.994Z,1.50
2022-09-02T12:26:53.547Z,1.40
2022-09-02T12:29:49.213Z,1.57
2022-09-02T12:32:55.179Z,1.40
2022-09-02T12:38:29.410Z,1.40
2022-09-02T12:41:29.806Z,1.50
2022-09-02T12:44:17.665Z,1.77
2022-09-02T12:46:50.662Z,1.60
2022-09-02T12:49:56.518Z,1.30
2022-09-02T12:52:47.776Z,1.50
2022-09-02T12:55:21.129Z,1.57
2022-09-02T12:57:52.606Z,1.60
2022-09-02T13:00:59.306Z,1.50
2022-09-02T13:04:03.490Z,1.60
2022-09-02T13:07:06.002Z,1.60
2022-09-02T13:09:50.343Z,1.77
2022-09-02T13:12:49.169Z,1.70
2022-09-02T13:15:58.232Z,1.90
2022-09-02T13:18:47.860Z,1.50
2022-09-02T13:21:38.592Z,1.50
2022-09-02T13:24:49.694Z,1.90
2022-09-02T13:27:58.920Z,1.80
2022-09-02T13:31:23.776Z,1.80
2022-09-02T13:34:14.009Z,1.57
2022-09-02T13:36:50.512Z,1.40
2022-09-02T13:39:26.892Z,1.50
2022-09-02T13:41:57.280Z,1.53
2022-09-02T13:44:33.664Z,1.50
2022-09-02T13:47:23.949Z,1.40
2022-09-02T13:53:45.244Z,1.60
2022-09-02T13:55:35.560Z,1.40
2022-09-02T13:58:06.933Z,1.70
2022-09-02T14:00:38.393Z,1.40
2022-09-02T14:03:23.958Z,1.60
2022-09-02T14:05:56.788Z,1.50
2022-09-02T14:08:31.503Z,1.77
2022-09-02T14:11:15.583Z,1.60
2022-09-02T14:13:49.044Z,1.60
2022-09-02T14:16:39.671Z,1.50
2022-09-02T14:19:34.917Z,1.43
2022-09-02T14:22:06.295Z,1.30
2022-09-02T14:24:41.578Z,1.60
2022-09-02T14:27:19.074Z,1.60
2022-09-02T14:29:56.451Z,1.50
2022-09-02T14:32:44.814Z,1.50
2022-09-02T14:35:26.415Z,1.77
2022-09-02T14:37:59.213Z,1.70
2022-09-02T14:40:40.760Z,1.40
2022-09-02T14:43:18.106Z,1.47
2022-09-02T14:45:50.477Z,1.50
2022-09-02T14:48:27.993Z,1.33
2022-09-02T14:51:10.117Z,1.30
2022-09-02T14:53:43.931Z,1.50
2022-09-02T14:56:14.744Z,1.60
2022-09-02T14:58:43.340Z,1.60
2022-09-02T15:01:15.209Z,1.60
2022-09-02T15:03:44.439Z,1.53
2022-09-02T15:06:16.846Z,1.50
2022-09-02T15:08:48.821Z,1.40
2022-09-02T15:11:20.400Z,1.50
2022-09-02T15:13:51.336Z,1.40
2022-09-02T15:16:33.011Z,1.40
2022-09-02T15:19:02.993Z,1.40
2022-09-02T15:21:33.718Z,1.40
2022-09-02T15:24:01.369Z,1.23
2022-09-02T15:26:32.563Z,1.27
2022-09-02T15:29:03.566Z,1.63
2022-09-02T15:31:34.621Z,1.43
2022-09-02T15:34:05.879Z,1.10
2022-09-02T15:36:35.601Z,1.40
2022-09-02T15:41:57.814Z,1.20
2022-09-02T15:44:28.264Z,1.47
2022-09-02T15:47:00.574Z,1.60
2022-09-02T15:49:32.487Z,1.50
2022-09-02T15:52:04.008Z,1.57
2022-09-02T15:54:32.980Z,1.43
2022-09-02T15:57:04.470Z,1.40
2022-09-02T15:59:31.894Z,1.37
2022-09-02T16:02:03.054Z,1.57
2022-09-02T16:04:34.314Z,1.60
2022-09-02T16:07:09.392Z,1.43
2022-09-02T16:09:46.582Z,1.50
2022-09-02T16:12:18.250Z,1.50
2022-09-02T16:14:53.381Z,1.50
2022-09-02T16:17:22.593Z,1.70
2022-09-02T16:19:53.545Z,1.53
2022-09-02T16:22:23.433Z,1.47
2022-09-02T16:24:53.368Z,1.70
2022-09-02T16:27:44.813Z,1.53
2022-09-02T16:30:13.186Z,1.70
2022-09-02T16:32:43.164Z,1.60
2022-09-02T16:35:14.845Z,1.60
2022-09-02T16:37:45.853Z,1.63
2022-09-02T16:40:21.867Z,1.50
2022-09-02T16:42:51.658Z,1.60
2022-09-02T16:45:22.513Z,1.60
2022-09-02T16:47:52.436Z,1.90
2022-09-02T16:50:22.880Z,1.83
2022-09-02T16:52:54.264Z,1.60
2022-09-02T16:55:21.722Z,2.00
2022-09-02T16:57:53.883Z,1.80
2022-09-02T17:00:26.061Z,1.70
2022-09-02T17:02:56.316Z,1.60
2022-09-02T17:05:27.171Z,1.60
2022-09-02T17:08:01.301Z,1.90
2022-09-02T17:10:32.508Z,1.90
2022-09-02T17:13:02.959Z,1.90
2022-09-02T17:15:36.726Z,1.70
2022-09-02T17:18:07.979Z,2.20
2022-09-02T17:20:38.262Z,2.00
2022-09-02T17:23:11.850Z,2.20
2022-09-02T17:28:29.725Z,1.93
2022-09-02T17:31:00.253Z,2.10
2022-09-02T17:33:31.401Z,2.07
2022-09-02T17:36:04.346Z,2.10
2022-09-02T17:38:35.482Z,2.20
2022-09-02T17:41:37.869Z,2.20
2022-09-02T17:44:10.864Z,1.90
2022-09-02T17:46:52.088Z,2.17
2022-09-02T17:49:25.189Z,2.10
2022-09-02T17:51:56.122Z,2.07
2022-09-02T17:54:25.663Z,1.70
2022-09-02T17:57:29.690Z,2.13
2022-09-02T18:00:23.968Z,2.10
2022-09-02T18:02:59.921Z,2.10
2022-09-02T18:05:48.595Z,1.90
2022-09-02T18:08:35.481Z,2.50
2022-09-02T18:11:09.555Z,2.20
2022-09-02T18:13:59.881Z,2.50
2022-09-02T18:17:04.752Z,2.30
2022-09-02T18:19:50.531Z,2.40
2022-09-02T18:22:57.975Z,2.40
2022-09-02T18:26:03.981Z,2.40
2022-09-02T18:28:49.504Z,2.40
2022-09-02T18:32:04.366Z,1.90
2022-09-02T18:35:03.385Z,1.87
2022-09-02T18:38:08.955Z,2.33
2022-09-02T18:41:16.119Z,2.50
2022-09-02T18:43:49.315Z,3.17
2022-09-02T18:46:19.128Z,2.73
2022-09-02T18:48:53.260Z,2.63
2022-09-02T18:52:03.524Z,2.37
2022-09-02T18:54:48.055Z,2.30
2022-09-02T18:57:20.383Z,2.40
2022-09-02T19:00:11.327Z,2.40
2022-09-02T19:03:05.456Z,2.30
2022-09-02T19:05:38.359Z,2.40
2022-09-02T19:08:35.425Z,2.27
2022-09-02T19:11:17.472Z,2.37
2022-09-02T19:13:55.755Z,2.40
2022-09-02T19:16:32.647Z,2.37
2022-09-02T19:19:04.864Z,2.27
2022-09-02T19:22:13.618Z,2.20
2022-09-02T19:24:51.388Z,2.30
2022-09-02T19:27:24.203Z,2.20
2022-09-02T19:30:02.451Z,2.30
2022-09-02T19:32:43.053Z,2.10
2022-09-02T19:35:20.872Z,2.20
2022-09-02T19:37:53.444Z,2.53
2022-09-02T19:40:32.934Z,2.10
2022-09-02T19:43:10.697Z,2.33
2022-09-02T19:45:40.830Z,2.20
2022-09-02T19:48:20.685Z,2.10
2022-09-02T19:50:55.056Z,2.07
2022-09-02T19:53:30.502Z,2.00
2022-09-02T19:56:03.014Z,2.10
2022-09-02T19:58:36.703Z,2.20
2022-09-02T20:01:10.857Z,2.20
2022-09-02T20:03:40.558Z,2.50
2022-09-02T20:06:10.207Z,2.30
2022-09-02T20:08:40.998Z,2.37
2022-09-02T20:11:12.736Z,2.30
2022-09-02T20:13:43.666Z,2.40
2022-09-02T20:16:31.990Z,2.40
2022-09-02T20:19:04.616Z,2.60
2022-09-02T20:21:54.781Z,2.67
2022-09-02T20:24:37.670Z,2.50
2022-09-02T20:27:36.420Z,2.60
2022-09-02T20:30:22.449Z,2.40
2022-09-02T20:33:22.369Z,2.30
2022-09-02T20:36:30.253Z,2.40
2022-09-02T20:39:22.326Z,2.30
2022-09-02T20:42:28.091Z,2.30
2022-09-02T20:45:22.323Z,2.53
2022-09-02T20:48:42.032Z,2.20
2022-09-02T20:51:41.784Z,2.27
2022-09-02T20:54:41.307Z,2.23
2022-09-02T20:57:21.826Z,2.53
2022-09-02T21:00:13.173Z,2.67
2022-09-02T21:02:58.900Z,2.63
2022-09-02T21:05:35.168Z,2.40
2022-09-02T21:08:26.020Z,2.43
2022-09-02T21:10:59.823Z,2.60
2022-09-02T21:13:42.765Z,2.60
2022-09-02T21:16:19.640Z,2.30
2022-09-02T21:19:23.110Z,2.50
2022-09-02T21:22:23.064Z,2.53
2022-09-02T21:25:14.187Z,2.30
2022-09-02T21:27:56.058Z,2.57
2022-09-02T21:30:30.739Z,2.30
2022-09-02T21:33:01.993Z,2.40
2022-09-02T21:35:51.566Z,2.40
2022-09-02T21:38:46.595Z,2.40
2022-09-02T21:41:46.836Z,2.50
2022-09-02T21:44:50.124Z,2.50
2022-09-02T21:47:44.024Z,2.60
2022-09-02T21:50:53.718Z,2.63
2022-09-02T21:53:49.319Z,2.67
2022-09-02T21:56:56.518Z,2.70
2022-09-02T22:00:06.476Z,3.07
2022-09-02T22:03:26.497Z,2.67
2022-09-02T22:06:07.551Z,2.63
2022-09-02T22:09:00.290Z,2.80
2022-09-02T22:11:45.393Z,2.60
2022-09-02T22:14:31.233Z,2.70
2022-09-02T22:17:35.715Z,3.00
2022-09-02T22:20:12.214Z,2.70
2022-09-02T22:22:49.858Z,2.67
2022-09-02T22:25:21.784Z,2.80
2022-09-02T22:28:16.073Z,2.80
2022-09-02T22:30:55.895Z,2.80
2022-09-02T22:33:29.293Z,2.57
2022-09-02T22:36:08.102Z,2.87
2022-09-02T22:38:46.382Z,2.73
2022-09-02T22:41:45.622Z,2.80
2022-09-02T22:44:22.497Z,2.77
2022-09-02T22:47:26.727Z,2.80
2022-09-02T22:50:21.587Z,2.60
2022-09-02T22:52:54.824Z,2.80
2022-09-02T22:55:43.093Z,2.80
2022-09-02T22:58:41.206Z,3.20
2022-09-02T23:01:36.551Z,2.90
2022-09-02T23:04:35.304Z,2.57
2022-09-02T23:07:05.307Z,2.40
2022-09-02T23:09:39.528Z,2.50
2022-09-02T23:12:42.851Z,2.50
2022-09-02T23:15:37.161Z,2.57
2022-09-02T23:18:49.105Z,2.70
2022-09-02T23:21:51.535Z,2.40
2022-09-02T23:24:36.994Z,2.53
2022-09-02T23:27:45.359Z,2.73
2022-09-02T23:30:16.633Z,2.83
2022-09-02T23:33:17.798Z,2.70
2022-09-02T23:36:17.901Z,2.60
2022-09-02T23:39:13.173Z,2.90
2022-09-02T23:41:49.560Z,2.67
2022-09-02T23:44:20.856Z,2.70
2022-09-02T23:47:49.314Z,2.70
2022-09-02T23:50:52.844Z,2.60
2022-09-02T23:53:51.774Z,2.60
2022-09-02T23:57:08.244Z,2.43
